Airfield :
LOGIN :

Register | Disclaimer

   EN    FR    IT 

 










Legend :    VFR   Marginal VFR   IFR   Intensive IFR   Very Intensive IFR
Visi :
Ceiling :
>= 8 km
>= 3000ft
5 to 8 km
1000 to 3000 ft
1500m to 5 km
500 to 1000 ft
800 to 1500m
200 to 500 ft
< 800m
< 200 ft
Symbols :   Thunderstorms  Fog  Heavy snow  Heavy precipitations  Wind > 20 kt
SIGMETs :     Misc.  Thunderstorms  Icing  Turbulence  Mountain Waves  Volcanic Ashes






- Airport Elevation : 1066 ft


EGOM - RAF Spadeadam

CURRENT METAR :
  • 291320Z AUTO 18009KT 9999 -RA SCT024/// OVC046/// 15/11 Q1008

EXPIRED METARs :
  • 291250Z 19010KT 9999 SCT026 BKN050 16/11 Q1008 RMK BLU
  • 291220Z AUTO 15007KT 9999 RERA SCT026/// SCT064/// 15/11 Q1008
  • 291150Z 20010KT 9999 FEW010 BKN060 14/11 Q1008 RMK BLU
  • 291120Z AUTO 21009KT 9999 RA FEW003/// BKN027/// BKN054/// 13/12 Q1008
  • 291050Z 25009KT 9999 -RA BKN007 ///020 13/11 Q1008 RMK GRN

Expired Forecast.



MET'MAP, your aeronautical weather chart ! - Copyright ORBIFLY December 2007 - Disclaimer

ORBIFLY MET'MAP TEAM :

Programming & Development : Alexandra Zaïnal
Original concept : Baudouin d'Aumeries
Technical & hardware support : Manuel Goepfert
Assistance : Marc-Olivier Méhu




SOURCES & CREDITS :

   NOAA